Time;durP1;ratioP1;P1;durP2;ratioP2;P2;SDS_P1;SDS_P2;PMS_P1;PMS_P2;Temp;Humidity;BMP_temperature;BMP_pressure;BME280_temperature;BME280_humidity;BME280_pressure;Samples;Min_cycle;Max_cycle;Signal;HPM_P1;HPM_P2
2021/06/06 00:00:58;;;;;;;18.05;11.80;;;;;;;10.06;69.93;97454.06;1823584;77;28145;-85
2021/06/06 00:03:41;;;;;;;13.58;9.85;;;;;;;10.03;69.98;97456.66;1826726;77;25724;-82
2021/06/06 00:06:18;;;;;;;14.87;10.08;;;;;;;10.01;70.00;97453.88;1825800;77;25651;-83
2021/06/06 00:08:46;;;;;;;19.07;10.15;;;;;;;9.96;69.98;97453.66;1844396;77;26442;-83
2021/06/06 00:11:27;;;;;;;15.75;10.93;;;;;;;9.93;69.93;97455.41;1844264;77;25850;-84
2021/06/06 00:13:57;;;;;;;13.58;10.32;;;;;;;9.88;69.96;97457.39;1834175;77;27446;-83
2021/06/06 00:16:28;;;;;;;18.92;11.88;;;;;;;9.85;69.99;97461.00;1833845;77;25740;-85
2021/06/06 00:18:56;;;;;;;17.25;12.07;;;;;;;9.82;70.09;97464.94;1836013;77;26644;-84
2021/06/06 00:21:25;;;;;;;15.58;10.90;;;;;;;9.79;70.15;97459.95;1835411;77;26247;-85
2021/06/06 00:23:53;;;;;;;19.07;11.78;;;;;;;9.76;70.11;97463.08;1834616;77;25222;-84
2021/06/06 00:26:20;;;;;;;17.95;12.50;;;;;;;9.72;70.15;97458.59;1824537;77;27436;-86
2021/06/06 00:28:47;;;;;;;28.17;13.58;;;;;;;9.69;70.29;97458.17;1846845;77;25738;-82
2021/06/06 00:31:15;;;;;;;26.68;14.43;;;;;;;9.62;70.43;97463.56;1844324;77;25668;-83
2021/06/06 00:33:43;;;;;;;22.30;14.63;;;;;;;9.59;70.58;97460.44;1830516;77;25901;-87
2021/06/06 00:36:10;;;;;;;24.43;14.53;;;;;;;9.58;70.63;97464.98;1839061;77;25410;-88
2021/06/06 00:38:37;;;;;;;27.13;14.15;;;;;;;9.57;70.61;97455.24;1844372;77;27420;-82
2021/06/06 00:41:06;;;;;;;23.02;13.28;;;;;;;9.54;70.56;97453.49;1844319;77;25718;-87
2021/06/06 00:43:33;;;;;;;22.27;12.43;;;;;;;9.47;70.51;97449.93;1844419;77;25760;-88
2021/06/06 00:46:01;;;;;;;17.48;11.20;;;;;;;9.42;70.65;97451.08;1844369;77;25898;-87
2021/06/06 00:48:27;;;;;;;17.52;10.72;;;;;;;9.39;70.74;97459.04;1837208;77;25674;-88
2021/06/06 00:50:58;;;;;;;15.13;10.30;;;;;;;9.36;70.74;97457.58;1832196;77;27559;-87
2021/06/06 00:53:45;;;;;;;15.23;10.80;;;;;;;9.34;70.71;97457.45;1843184;77;25841;-88
2021/06/06 00:56:17;;;;;;;19.50;10.32;;;;;;;9.30;70.75;97454.84;1831308;77;25786;-87
2021/06/06 00:58:48;;;;;;;17.48;10.78;;;;;;;9.29;70.92;97452.70;1838776;77;26637;-89
2021/06/06 01:01:16;;;;;;;17.73;10.65;;;;;;;9.27;70.85;97453.92;1844431;77;25810;-89
2021/06/06 01:03:51;;;;;;;14.85;10.10;;;;;;;9.23;70.89;97456.70;1824536;77;27380;-87
2021/06/06 01:06:23;;;;;;;11.80;9.28;;;;;;;9.22;70.84;97463.11;1843711;77;25793;-85
2021/06/06 01:08:50;;;;;;;11.65;9.45;;;;;;;9.17;70.87;97461.55;1843835;77;25903;-86
2021/06/06 01:11:49;;;;;;;14.95;9.80;;;;;;;9.15;70.92;97466.30;1833968;77;26559;-88
2021/06/06 01:14:33;;;;;;;14.40;10.63;;;;;;;9.13;70.95;97466.50;1841166;77;25702;-86
2021/06/06 01:17:08;;;;;;;13.43;10.43;;;;;;;9.10;71.01;97464.20;1844289;77;27341;-85
2021/06/06 01:19:40;;;;;;;16.12;10.30;;;;;;;9.08;70.96;97466.77;1844146;77;25955;-87
2021/06/06 01:22:26;;;;;;;14.35;10.38;;;;;;;9.06;71.02;97468.86;1825602;77;35252;-85
2021/06/06 01:25:07;;;;;;;13.00;10.38;;;;;;;9.03;71.08;97468.23;1837747;77;26384;-89
2021/06/06 01:27:38;;;;;;;15.83;10.15;;;;;;;8.99;71.11;97462.91;1836015;77;25761;-87
2021/06/06 01:30:28;;;;;;;12.93;10.07;;;;;;;8.95;71.16;97462.16;1839650;76;27348;-86
2021/06/06 01:33:26;;;;;;;15.40;10.63;;;;;;;8.91;71.18;97457.70;1840920;77;25688;-89
2021/06/06 01:36:04;;;;;;;13.08;10.10;;;;;;;8.89;71.19;97458.42;1845606;77;25901;-90
2021/06/06 01:38:38;;;;;;;14.70;9.78;;;;;;;8.87;71.24;97471.23;1778288;77;26477;-88
2021/06/06 01:41:12;;;;;;;11.33;8.95;;;;;;;8.84;71.26;97466.76;1786692;77;25512;-86
2021/06/06 01:43:44;;;;;;;12.50;9.38;;;;;;;8.79;71.25;97470.06;1785696;79;27343;-88
2021/06/06 01:46:22;;;;;;;10.98;8.95;;;;;;;8.76;71.31;97467.77;1810323;77;26173;-89
2021/06/06 01:48:48;;;;;;;12.45;9.85;;;;;;;8.74;71.37;97461.74;1833699;77;25680;-89
2021/06/06 01:51:26;;;;;;;14.58;10.03;;;;;;;8.69;71.41;97466.91;1825111;77;26501;-90
2021/06/06 01:53:53;;;;;;;14.05;9.90;;;;;;;8.68;71.45;97466.59;1844938;77;25759;-88
2021/06/06 01:56:28;;;;;;;18.23;10.08;;;;;;;8.66;71.54;97469.98;1844024;77;28016;-86
2021/06/06 01:58:58;;;;;;;15.32;8.73;;;;;;;8.64;71.60;97469.34;1844165;77;26679;-86
2021/06/06 02:01:26;;;;;;;14.85;8.65;;;;;;;8.62;71.62;97468.20;1817371;77;25692;-89
2021/06/06 02:03:56;;;;;;;14.20;9.68;;;;;;;8.59;71.60;97472.62;1832446;77;26458;-90
2021/06/06 02:06:28;;;;;;;12.23;8.73;;;;;;;8.58;71.60;97469.61;1844321;77;25834;-83
2021/06/06 02:08:58;;;;;;;11.20;8.50;;;;;;;8.56;71.61;97466.31;1842149;77;27501;-86
2021/06/06 02:11:42;;;;;;;11.93;8.78;;;;;;;8.55;71.61;97467.33;1824294;77;25661;-89
2021/06/06 02:14:14;;;;;;;10.20;8.58;;;;;;;8.53;71.59;97472.59;1843999;77;25209;-85
2021/06/06 02:16:46;;;;;;;15.10;9.85;;;;;;;8.48;71.68;97468.30;1838324;77;25784;-86
2021/06/06 02:19:12;;;;;;;12.70;8.73;;;;;;;8.45;71.97;97472.75;1831439;77;25783;-87
2021/06/06 02:21:39;;;;;;;12.05;8.25;;;;;;;8.45;71.97;97472.75;1844165;77;28522;-90
2021/06/06 02:24:08;;;;;;;15.32;8.98;;;;;;;8.43;71.73;97477.48;1844173;77;25861;-90
2021/06/06 02:26:45;;;;;;;9.73;8.30;;;;;;;8.39;71.74;97481.59;1841662;77;25819;-88
2021/06/06 02:29:20;;;;;;;10.75;7.95;;;;;;;8.36;71.76;97476.08;1829284;77;26611;-89
2021/06/06 02:32:19;;;;;;;10.45;8.73;;;;;;;8.35;71.77;97474.92;1839228;77;25772;-89
2021/06/06 02:35:12;;;;;;;10.55;7.65;;;;;;;8.34;71.81;97484.02;1834780;77;27374;-85
2021/06/06 02:37:56;;;;;;;10.53;7.75;;;;;;;8.28;71.80;97481.06;1844069;77;26331;-88
2021/06/06 02:40:40;;;;;;;10.50;7.87;;;;;;;8.26;71.79;97475.05;1831478;77;25905;-88
2021/06/06 02:43:23;;;;;;;11.73;8.10;;;;;;;8.22;71.83;97483.17;1831062;77;26328;-88
2021/06/06 02:45:51;;;;;;;;;;;;;;;8.17;71.91;97489.67;1847210;77;25797;-90
2021/06/06 02:48:26;;;;;;;13.20;9.03;;;;;;;8.16;72.12;97486.66;1844541;77;28093;-90
2021/06/06 02:50:59;;;;;;;13.15;9.80;;;;;;;8.15;72.15;97484.99;1837583;77;25811;-89
2021/06/06 02:53:30;;;;;;;12.90;9.40;;;;;;;8.14;72.09;97484.67;1832891;77;25706;-90
2021/06/06 02:56:04;;;;;;;14.23;8.85;;;;;;;8.12;72.16;97479.99;1815902;77;26531;-89
2021/06/06 02:58:36;;;;;;;11.73;8.38;;;;;;;8.10;72.12;97480.70;1842758;77;25767;-88
2021/06/06 03:01:16;;;;;;;16.23;8.60;;;;;;;8.07;72.21;97487.83;1837489;77;27366;-87
2021/06/06 03:03:45;;;;;;;10.65;8.88;;;;;;;8.05;72.26;97487.19;1833865;77;25810;-90
2021/06/06 03:06:25;;;;;;;10.95;8.68;;;;;;;8.05;72.29;97485.84;1844471;77;25759;-89
2021/06/06 03:08:52;;;;;;;14.85;9.45;;;;;;;8.03;72.37;97485.20;1841508;77;25719;-88
2021/06/06 03:11:20;;;;;;;8.68;7.78;;;;;;;8.04;72.45;97480.66;1844601;77;25237;-89
2021/06/06 03:13:51;;;;;;;11.63;8.18;;;;;;;8.03;72.49;97485.20;1807542;77;27539;-88
2021/06/06 03:16:20;;;;;;;11.40;8.28;;;;;;;8.05;72.56;97487.19;1798065;79;25704;-83
2021/06/06 03:18:50;;;;;;;10.98;8.30;;;;;;;8.05;72.67;97490.38;1800584;79;25707;-90
2021/06/06 03:21:34;;;;;;;14.80;8.10;;;;;;;8.05;72.71;97488.53;1795165;79;25738;-89
2021/06/06 03:24:06;;;;;;;9.75;7.50;;;;;;;8.04;72.79;97489.55;1770734;79;25813;-88
2021/06/06 03:26:35;;;;;;;11.10;8.28;;;;;;;8.05;72.86;97496.59;1784284;79;27414;-88
2021/06/06 03:29:08;;;;;;;11.55;8.20;;;;;;;8.08;72.97;97494.88;1733597;81;26042;-91
2021/06/06 03:31:39;;;;;;;14.35;8.15;;;;;;;8.05;73.05;97496.59;1798959;78;25847;-87
2021/06/06 03:34:07;;;;;;;11.10;7.93;;;;;;;8.03;73.09;97495.95;1798753;79;25736;-88
2021/06/06 03:36:38;;;;;;;13.05;7.90;;;;;;;8.06;73.19;97494.23;1798281;79;25753;-85
2021/06/06 03:39:13;;;;;;;11.03;8.00;;;;;;;8.08;73.30;97493.53;1798741;79;27337;-89
2021/06/06 03:41:40;;;;;;;10.43;7.92;;;;;;;8.12;73.34;97494.78;1756565;79;25701;-87
2021/06/06 03:44:07;;;;;;;11.43;7.97;;;;;;;8.15;73.40;97489.53;1796113;79;25734;-87
2021/06/06 03:46:36;;;;;;;11.75;8.13;;;;;;;8.19;73.50;97492.17;1798710;79;25897;-88
2021/06/06 03:49:05;;;;;;;10.80;7.83;;;;;;;8.23;73.59;97488.05;1798708;79;25744;-87
2021/06/06 03:51:32;;;;;;;11.97;8.23;;;;;;;8.29;73.70;97490.80;1797739;79;27547;-88
2021/06/06 03:53:59;;;;;;;9.18;8.20;;;;;;;8.35;73.67;97488.38;1798724;79;25743;-87
2021/06/06 03:56:26;;;;;;;8.45;7.58;;;;;;;8.38;73.74;97486.64;1798632;79;25280;-87
2021/06/06 03:58:54;;;;;;;8.68;7.53;;;;;;;8.42;73.74;97483.89;1798600;78;25789;-85
2021/06/06 04:01:21;;;;;;;11.20;8.08;;;;;;;8.44;73.68;97485.37;1798321;79;25723;-86
2021/06/06 04:03:47;;;;;;;11.70;9.00;;;;;;;8.47;73.69;97490.84;1773010;79;28175;-89
2021/06/06 04:06:14;;;;;;;11.63;8.70;;;;;;;8.51;73.74;97486.23;1797558;78;25852;-88
2021/06/06 04:08:41;;;;;;;11.83;9.05;;;;;;;8.56;73.86;97488.34;1798409;78;25790;-89
2021/06/06 04:11:08;;;;;;;11.18;9.18;;;;;;;8.59;73.93;97486.07;1752540;79;26317;-86
2021/06/06 04:13:34;;;;;;;14.20;9.13;;;;;;;8.66;73.97;97484.78;1823429;77;25755;-89
2021/06/06 04:16:02;;;;;;;10.58;9.13;;;;;;;8.73;73.96;97484.30;1844075;77;27430;-90
2021/06/06 04:18:31;;;;;;;13.65;9.60;;;;;;;8.81;73.96;97486.02;1844354;77;25877;-85
2021/06/06 04:21:03;;;;;;;14.70;9.83;;;;;;;8.85;73.97;97486.75;1843339;77;25731;-80
2021/06/06 04:23:29;;;;;;;12.93;10.53;;;;;;;8.89;74.00;97486.69;1844719;77;25936;-82
2021/06/06 04:25:56;;;;;;;10.85;9.65;;;;;;;8.92;74.00;97481.42;1840096;77;25731;-81
2021/06/06 04:28:24;;;;;;;15.60;10.93;;;;;;;8.96;74.03;97482.66;1843399;77;27587;-82
2021/06/06 04:30:52;;;;;;;13.50;10.23;;;;;;;9.00;74.09;97483.42;1842515;77;25679;-81
2021/06/06 04:33:21;;;;;;;14.53;10.68;;;;;;;9.07;74.14;97483.95;1830197;77;25841;-81
2021/06/06 04:35:48;;;;;;;12.82;9.48;;;;;;;9.12;74.23;97482.86;1844141;77;25877;-81
2021/06/06 04:38:19;;;;;;;14.05;9.83;;;;;;;9.18;74.21;97483.39;1844300;77;25721;-83
2021/06/06 04:40:47;;;;;;;11.88;9.33;;;;;;;9.24;74.26;97485.30;1844456;77;27550;-85
2021/06/06 04:43:14;;;;;;;11.97;10.13;;;;;;;9.30;74.20;97481.78;1836837;77;25776;-81
2021/06/06 04:45:40;;;;;;;11.03;9.40;;;;;;;9.36;74.27;97485.03;1839049;77;25689;-82
2021/06/06 04:48:27;;;;;;;10.85;8.98;;;;;;;9.43;74.25;97480.48;1844366;77;26564;-83
2021/06/06 04:51:00;;;;;;;12.58;10.23;;;;;;;9.49;74.30;97474.30;1844444;77;25590;-83
2021/06/06 04:53:26;;;;;;;14.35;10.43;;;;;;;9.57;74.48;97480.84;1804125;79;27416;-81
2021/06/06 04:55:56;;;;;;;11.83;9.93;;;;;;;9.64;74.56;97481.70;1834734;77;25786;-82
2021/06/06 04:58:22;;;;;;;11.18;9.88;;;;;;;9.70;74.56;97480.88;1837536;77;25691;-87
2021/06/06 05:00:50;;;;;;;13.13;9.80;;;;;;;9.77;74.55;97487.66;1838784;77;26569;-83
2021/06/06 05:03:19;;;;;;;11.53;9.83;;;;;;;9.86;74.56;97485.58;1838863;77;25823;-83
2021/06/06 05:05:47;;;;;;;10.80;9.65;;;;;;;9.94;74.64;97481.33;1838871;77;27593;-84
2021/06/06 05:08:17;;;;;;;12.03;10.53;;;;;;;10.00;74.72;97480.53;1838530;77;25724;-82
2021/06/06 05:10:45;;;;;;;13.70;10.03;;;;;;;10.09;74.82;97477.94;1844004;77;25698;-84
2021/06/06 05:13:13;;;;;;;12.37;9.73;;;;;;;10.16;74.93;97481.45;1833313;77;26431;-81
2021/06/06 05:15:40;;;;;;;11.45;9.88;;;;;;;10.24;75.01;97481.30;1835366;77;25838;-84
2021/06/06 05:18:08;;;;;;;13.45;10.40;;;;;;;10.33;75.21;97481.40;1841165;77;28231;-85
2021/06/06 05:20:39;;;;;;;11.70;9.68;;;;;;;10.40;75.28;97475.47;1841159;77;25727;-89
2021/06/06 05:23:07;;;;;;;11.48;9.65;;;;;;;10.50;75.45;97479.64;1839482;77;25737;-82
2021/06/06 05:25:36;;;;;;;10.40;8.98;;;;;;;10.59;75.43;97477.02;1813094;77;25678;-83
2021/06/06 05:28:06;;;;;;;10.05;8.48;;;;;;;10.68;75.46;97483.86;1841585;77;25751;-82
2021/06/06 05:30:36;;;;;;;15.55;9.48;;;;;;;10.77;75.46;97477.19;1839667;77;27421;-85
2021/06/06 05:33:04;;;;;;;10.30;9.18;;;;;;;10.87;75.50;97478.92;1841386;77;26775;-87
2021/06/06 05:35:33;;;;;;;10.75;9.65;;;;;;;10.97;75.73;97476.64;1836919;77;25801;-85
2021/06/06 05:38:00;;;;;;;12.53;10.20;;;;;;;11.09;75.80;97477.64;1840380;77;25836;-86
2021/06/06 05:40:30;;;;;;;11.80;10.18;;;;;;;11.19;75.62;97473.97;1818103;77;25831;-86
2021/06/06 05:42:57;;;;;;;11.73;9.60;;;;;;;11.29;75.63;97473.51;1841393;77;28158;-86
2021/06/06 05:45:25;;;;;;;11.30;9.68;;;;;;;11.40;75.58;97478.77;1841215;77;25928;-85
2021/06/06 05:47:52;;;;;;;11.83;9.90;;;;;;;11.50;75.53;97476.42;1841497;77;25769;-84
2021/06/06 05:50:23;;;;;;;12.60;10.15;;;;;;;11.60;75.46;97477.30;1836717;77;26485;-82
2021/06/06 05:52:50;;;;;;;13.30;10.05;;;;;;;11.70;75.42;97474.47;1841637;77;25694;-85
2021/06/06 05:55:19;;;;;;;11.25;10.10;;;;;;;11.81;75.45;97473.81;1841357;77;27350;-85
2021/06/06 05:57:47;;;;;;;10.23;9.15;;;;;;;11.92;75.43;97471.45;1841511;77;25890;-85
2021/06/06 06:00:23;;;;;;;11.38;10.28;;;;;;;12.04;75.43;97470.53;1841573;77;25808;-86
2021/06/06 06:02:49;;;;;;;11.65;10.28;;;;;;;12.17;75.42;97469.61;1841279;77;26839;-83
2021/06/06 06:05:16;;;;;;;11.53;10.25;;;;;;;12.33;75.37;97473.62;1841501;77;25719;-84
2021/06/06 06:07:43;;;;;;;11.70;10.48;;;;;;;12.45;75.37;97471.33;1841379;77;27527;-89
2021/06/06 06:10:18;;;;;;;12.78;10.45;;;;;;;12.57;75.25;97468.73;1841063;77;25735;-83
2021/06/06 06:12:45;;;;;;;12.15;9.98;;;;;;;12.71;75.12;97466.20;1840905;77;25765;-85
2021/06/06 06:15:14;;;;;;;12.78;11.20;;;;;;;12.83;74.86;97464.94;1841088;77;27066;-89
2021/06/06 06:17:40;;;;;;;10.95;9.83;;;;;;;12.96;74.90;97469.70;1841358;77;25654;-88
2021/06/06 06:20:11;;;;;;;12.70;10.30;;;;;;;13.07;74.84;97468.12;1841395;77;27357;-85
2021/06/06 06:22:38;;;;;;;12.65;10.65;;;;;;;13.20;74.75;97473.42;1841296;77;26337;-87
2021/06/06 06:25:08;;;;;;;12.18;10.40;;;;;;;13.32;74.65;97475.67;1841337;77;25757;-82
2021/06/06 06:27:35;;;;;;;17.15;11.65;;;;;;;13.46;74.64;97474.16;1840916;77;25741;-88
2021/06/06 06:30:10;;;;;;;13.60;12.20;;;;;;;13.56;74.46;97469.84;1841436;77;25765;-83
2021/06/06 06:32:37;;;;;;;15.08;11.43;;;;;;;13.69;74.35;97475.63;1829279;77;27570;-87
2021/06/06 06:35:06;;;;;;;14.18;10.23;;;;;;;13.83;74.54;97475.75;1841359;77;25738;-86
2021/06/06 06:37:32;;;;;;;12.78;10.63;;;;;;;13.98;74.31;97476.16;1841490;77;25767;-86
2021/06/06 06:39:59;;;;;;;12.07;10.05;;;;;;;14.12;74.07;97467.83;1841373;77;25523;-85
2021/06/06 06:42:26;;;;;;;12.68;10.00;;;;;;;14.25;73.99;97471.70;1841402;77;26401;-90
2021/06/06 06:44:53;;;;;;;11.40;9.55;;;;;;;14.39;74.16;97466.33;1841284;77;27220;-83
2021/06/06 06:47:19;;;;;;;13.45;11.25;;;;;;;14.50;73.70;97465.55;1837154;77;25763;-84
2021/06/06 06:49:46;;;;;;;11.73;10.23;;;;;;;14.65;73.84;97461.84;1835122;77;25676;-88
2021/06/06 06:52:12;;;;;;;11.75;10.13;;;;;;;14.80;73.66;97465.98;1841167;77;26611;-86
2021/06/06 06:54:39;;;;;;;14.53;11.53;;;;;;;14.91;73.52;97469.23;1841461;77;25712;-86
2021/06/06 06:57:06;;;;;;;14.20;9.30;;;;;;;15.04;73.47;97468.98;1841749;77;27350;-85
2021/06/06 06:59:33;;;;;;;11.30;10.20;;;;;;;15.17;73.09;97466.55;1816150;77;25834;-90
2021/06/06 07:02:03;;;;;;;12.13;10.53;;;;;;;15.29;72.90;97462.73;1837393;77;25739;-90
2021/06/06 07:04:29;;;;;;;9.45;8.45;;;;;;;15.40;72.69;97461.05;1837181;77;25851;-90
2021/06/06 07:06:56;;;;;;;10.53;8.10;;;;;;;15.47;72.29;97461.20;1837018;77;25749;-93
2021/06/06 07:09:25;;;;;;;9.50;8.58;;;;;;;15.55;72.24;97464.13;1822183;77;27417;-89
2021/06/06 07:11:54;;;;;;;10.35;8.28;;;;;;;15.65;72.02;97464.86;1830744;77;25731;-90
2021/06/06 07:14:21;;;;;;;10.93;8.00;;;;;;;15.75;72.07;97464.52;1833799;77;25850;-84
2021/06/06 07:16:47;;;;;;;8.50;7.70;;;;;;;15.87;71.96;97459.55;1791886;79;25824;-89
2021/06/06 07:19:14;;;;;;;7.92;7.22;;;;;;;15.93;71.82;97455.34;1824526;77;25691;-84
2021/06/06 07:21:41;;;;;;;7.35;6.65;;;;;;;15.99;71.49;97451.62;1828904;77;27405;-85
2021/06/06 07:24:08;;;;;;;7.75;6.83;;;;;;;16.09;71.10;97458.61;1820729;77;25726;-87
2021/06/06 07:26:43;;;;;;;7.83;6.58;;;;;;;16.24;71.17;97453.98;1818144;77;25264;-84
2021/06/06 07:29:13;;;;;;;6.80;6.20;;;;;;;16.40;71.14;97457.80;1837892;77;26810;-85
2021/06/06 07:31:43;;;;;;;7.35;6.58;;;;;;;16.60;70.84;97447.22;1842244;77;25229;-85
2021/06/06 07:34:14;;;;;;;13.30;6.90;;;;;;;16.79;70.45;97449.98;1826400;77;27434;-93
2021/06/06 07:36:41;;;;;;;7.60;6.90;;;;;;;16.96;69.88;97450.51;1827703;77;25973;-89
2021/06/06 07:39:08;;;;;;;7.53;6.42;;;;;;;17.09;69.68;97450.15;1841735;77;25738;-87
2021/06/06 07:41:35;;;;;;;9.15;7.17;;;;;;;17.25;69.49;97439.74;1841749;77;26634;-88
2021/06/06 07:44:02;;;;;;;9.70;6.78;;;;;;;17.43;69.39;97440.78;1841604;77;26096;-85
2021/06/06 07:46:28;;;;;;;7.92;6.10;;;;;;;17.68;69.29;97440.83;1841450;77;27580;-89
2021/06/06 07:48:55;;;;;;;7.53;6.37;;;;;;;17.94;69.39;97435.94;1841400;77;26394;-88
2021/06/06 07:51:22;;;;;;;8.43;6.78;;;;;;;18.18;68.87;97432.34;1841468;77;25694;-87
2021/06/06 07:53:54;;;;;;;8.70;6.50;;;;;;;18.45;68.50;97425.48;1838115;77;26716;-95
2021/06/06 07:56:22;;;;;;;7.85;6.47;;;;;;;18.78;67.94;97429.85;1841724;77;25745;-86
2021/06/06 07:58:48;;;;;;;11.15;6.42;;;;;;;19.19;67.31;97433.67;1839625;77;27363;-87
2021/06/06 08:01:15;;;;;;;6.78;6.08;;;;;;;19.69;66.81;97432.53;1813682;77;25779;-87
2021/06/06 08:03:42;;;;;;;8.10;5.95;;;;;;;20.25;66.29;97434.58;1832599;77;25707;-86
2021/06/06 08:06:11;;;;;;;6.90;6.15;;;;;;;20.78;65.97;97437.34;1831121;77;25734;-91
2021/06/06 08:08:38;;;;;;;7.92;6.17;;;;;;;21.31;64.74;97424.10;1825231;77;25727;-88
2021/06/06 08:11:07;;;;;;;7.33;5.70;;;;;;;21.69;63.91;97432.20;1825826;77;27383;-84
2021/06/06 08:13:34;;;;;;;6.22;5.58;;;;;;;22.14;63.06;97438.02;1841445;77;25726;-89
2021/06/06 08:16:01;;;;;;;8.60;4.83;;;;;;;22.66;62.45;97434.61;1780961;78;25963;-88
2021/06/06 08:18:35;;;;;;;7.00;5.12;;;;;;;23.17;61.38;97436.36;1792082;78;25739;-89
2021/06/06 08:21:10;;;;;;;6.37;5.22;;;;;;;23.62;60.39;97432.28;1795653;79;26351;-86
2021/06/06 08:23:39;;;;;;;5.78;4.92;;;;;;;24.10;59.81;97435.52;1804357;79;27369;-94
2021/06/06 08:26:06;;;;;;;5.62;5.12;;;;;;;24.53;58.45;97437.64;1781589;79;26225;-87
2021/06/06 08:28:35;;;;;;;5.67;5.00;;;;;;;24.84;57.79;97432.45;1798240;78;25738;-90
2021/06/06 08:31:07;;;;;;;6.72;4.60;;;;;;;25.24;57.00;97435.86;1814442;78;26566;-89
2021/06/06 08:33:35;;;;;;;6.53;5.03;;;;;;;25.58;56.50;97433.30;1831752;77;25268;-89
2021/06/06 08:36:16;;;;;;;5.75;4.90;;;;;;;25.92;55.64;97428.17;1834506;77;27360;-88
2021/06/06 08:38:43;;;;;;;4.92;4.45;;;;;;;26.07;54.34;97433.37;1761762;81;25786;-89
2021/06/06 08:41:23;;;;;;;6.80;4.37;;;;;;;26.22;53.39;97431.38;1765592;81;25792;-92
2021/06/06 08:44:07;;;;;;;4.92;3.70;;;;;;;26.53;51.93;97429.01;1750838;81;25932;-87
2021/06/06 08:46:48;;;;;;;6.53;4.78;;;;;;;26.80;51.06;97430.84;1733250;80;25856;-91
2021/06/06 08:49:15;;;;;;;5.72;4.45;;;;;;;27.26;50.63;97429.66;1713999;81;27385;-86
2021/06/06 08:51:52;;;;;;;6.50;4.45;;;;;;;27.64;50.54;97430.59;1721532;81;26178;-86
2021/06/06 08:54:43;;;;;;;4.37;3.85;;;;;;;27.98;49.51;97429.30;1726883;81;25817;-87
2021/06/06 08:57:20;;;;;;;4.30;3.83;;;;;;;28.28;48.86;97428.38;1725548;81;25921;-85
2021/06/06 08:59:56;;;;;;;4.25;3.90;;;;;;;28.61;47.84;97425.95;1688931;83;26544;-84
2021/06/06 09:02:33;;;;;;;5.95;4.20;;;;;;;28.86;47.12;97417.34;1708197;82;28300;-90
2021/06/06 09:05:04;;;;;;;4.10;3.70;;;;;;;28.98;46.35;97416.09;1707352;82;26635;-90
2021/06/06 09:07:41;;;;;;;5.25;4.15;;;;;;;29.21;46.05;97425.63;1679894;83;25750;-90
2021/06/06 09:10:16;;;;;;;4.20;3.80;;;;;;;29.41;45.18;97427.70;1679638;83;26789;-91
2021/06/06 09:12:43;;;;;;;5.10;3.52;;;;;;;29.48;44.04;97423.83;1679740;83;25861;-89
2021/06/06 09:15:15;;;;;;;4.67;4.05;;;;;;;29.47;43.60;97424.97;1705454;79;27621;-92
2021/06/06 09:17:49;;;;;;;4.53;3.40;;;;;;;29.47;42.93;97426.36;1826064;77;26082;-90
2021/06/06 09:20:40;;;;;;;7.40;4.45;;;;;;;29.70;42.10;97422.19;1833214;77;25840;-86
2021/06/06 09:23:12;;;;;;;5.12;4.00;;;;;;;29.81;42.59;97416.24;1830585;77;26550;-91
2021/06/06 09:25:45;;;;;;;5.28;3.90;;;;;;;30.06;42.40;97413.91;1828661;77;25792;-86
2021/06/06 09:28:22;;;;;;;4.97;4.12;;;;;;;30.28;42.03;97414.98;1825842;77;27562;-90
2021/06/06 09:31:09;;;;;;;4.55;3.90;;;;;;;30.28;40.70;97409.41;1818538;77;25719;-87
2021/06/06 09:33:43;;;;;;;5.90;3.87;;;;;;;30.17;39.10;97411.55;1806511;77;25780;-89
2021/06/06 09:36:26;;;;;;;3.67;3.37;;;;;;;30.03;40.26;97407.63;1790231;79;25716;-87
2021/06/06 09:39:09;;;;;;;4.25;3.85;;;;;;;30.11;39.87;97412.30;1832949;77;25703;-85
2021/06/06 09:41:50;;;;;;;4.33;3.60;;;;;;;30.21;39.12;97408.30;1825155;77;27361;-89
2021/06/06 09:44:30;;;;;;;5.47;3.67;;;;;;;30.41;39.29;97405.54;1830518;77;25671;-87
2021/06/06 09:47:11;;;;;;;3.95;3.58;;;;;;;30.52;39.34;97413.48;1819385;77;25267;-89
2021/06/06 09:49:48;;;;;;;4.22;3.20;;;;;;;30.48;38.18;97405.55;1829728;77;25691;-91
2021/06/06 09:52:41;;;;;;;4.65;4.00;;;;;;;30.47;38.15;97410.89;1823622;77;25496;-91
2021/06/06 09:55:22;;;;;;;4.83;3.90;;;;;;;30.49;38.49;97405.22;1790783;78;27397;-86
2021/06/06 09:57:54;;;;;;;7.10;4.53;;;;;;;30.46;38.20;97387.79;1791600;79;25860;-84
2021/06/06 10:00:29;;;;;;;4.05;3.60;;;;;;;30.46;38.20;97387.79;1830574;77;25809;-90
2021/06/06 10:03:00;;;;;;;4.15;3.75;;;;;;;30.57;38.06;97411.31;1829711;78;25740;-87
2021/06/06 10:05:39;;;;;;;5.47;4.07;;;;;;;30.49;37.89;97404.41;1830317;78;25685;-92
2021/06/06 10:08:20;;;;;;;4.40;4.00;;;;;;;30.33;37.62;97403.63;1826010;77;27376;-91
2021/06/06 10:10:55;;;;;;;8.10;4.20;;;;;;;30.28;37.89;97407.20;1822501;77;25865;-89
2021/06/06 10:13:28;;;;;;;4.78;4.35;;;;;;;30.19;37.30;97403.06;1829869;77;25760;-90
2021/06/06 10:16:08;;;;;;;6.53;3.98;;;;;;;30.17;37.70;97406.80;1826910;77;25778;-90
2021/06/06 10:18:46;;;;;;;4.10;3.77;;;;;;;30.16;37.22;97406.55;1820492;77;25699;-89
2021/06/06 10:21:20;;;;;;;8.35;4.30;;;;;;;29.97;36.70;97400.61;1780832;77;28356;-86
2021/06/06 10:23:55;;;;;;;4.05;3.72;;;;;;;29.67;36.85;97405.34;1832584;77;26048;-85
2021/06/06 10:26:52;;;;;;;6.05;4.08;;;;;;;29.62;36.82;97399.96;1834893;77;25779;-85
2021/06/06 10:29:33;;;;;;;4.28;3.85;;;;;;;29.59;36.75;97399.23;1840481;77;26466;-86
2021/06/06 10:32:11;;;;;;;5.35;4.30;;;;;;;29.56;37.60;97406.30;1844060;77;25668;-87
2021/06/06 10:34:54;;;;;;;4.30;3.80;;;;;;;29.50;37.11;97399.86;1844032;77;28436;-84
2021/06/06 10:37:22;;;;;;;4.30;4.00;;;;;;;29.56;37.56;97403.52;1844173;77;25751;-86
2021/06/06 10:40:00;;;;;;;4.97;3.72;;;;;;;29.64;37.49;97401.27;1844376;77;25691;-87
2021/06/06 10:42:31;;;;;;;3.85;3.30;;;;;;;29.65;36.53;97393.73;1844285;77;25769;-84
2021/06/06 10:45:24;;;;;;;4.10;3.70;;;;;;;29.66;35.72;97391.20;1844367;77;25640;-86
2021/06/06 10:47:58;;;;;;;4.92;3.83;;;;;;;29.64;36.24;97387.36;1823728;77;27629;-87
2021/06/06 10:50:41;;;;;;;6.90;5.83;;;;;;;29.64;36.07;97380.97;1842348;77;25751;-85
2021/06/06 10:53:23;;;;;;;3.77;3.47;;;;;;;29.70;36.10;97382.43;1836721;77;25675;-86
2021/06/06 10:56:10;;;;;;;4.93;3.80;;;;;;;29.34;35.64;97384.30;1840910;77;25851;-84
2021/06/06 10:58:53;;;;;;;5.10;4.08;;;;;;;29.28;36.33;97382.83;1844266;77;25937;-83
2021/06/06 11:01:28;;;;;;;5.45;4.37;;;;;;;29.28;36.33;97387.81;1844298;77;27356;-84
2021/06/06 11:04:15;;;;;;;4.95;4.25;;;;;;;29.43;36.73;97383.70;1843283;77;25790;-84
2021/06/06 11:06:47;;;;;;;4.17;3.67;;;;;;;29.60;36.90;97379.43;1843796;77;25896;-84
2021/06/06 11:09:29;;;;;;;4.55;3.65;;;;;;;29.67;36.63;97381.70;1837113;77;25830;-86
2021/06/06 11:12:01;;;;;;;5.92;3.60;;;;;;;29.68;36.03;97382.77;1832157;77;25718;-83
2021/06/06 11:14:34;;;;;;;;;;;;;;;29.72;36.15;97375.36;1844737;77;27410;-83
2021/06/06 11:17:15;;;;;;;3.95;3.52;;;;;;;29.76;34.48;97374.69;1839769;77;25738;-84
2021/06/06 11:19:42;;;;;;;7.17;3.77;;;;;;;29.72;35.81;97380.10;1841664;77;25817;-85
2021/06/06 11:22:19;;;;;;;3.60;3.30;;;;;;;29.62;35.90;97377.14;1841476;77;25726;-84
2021/06/06 11:24:49;;;;;;;7.60;3.85;;;;;;;29.57;35.87;97377.34;1839343;77;25718;-85
2021/06/06 11:27:28;;;;;;;3.70;3.40;;;;;;;29.54;35.90;97376.62;1841311;77;27311;-83
2021/06/06 11:30:22;;;;;;;5.17;3.60;;;;;;;29.39;35.92;97381.34;1828881;77;25667;-84
2021/06/06 11:33:07;;;;;;;4.05;3.75;;;;;;;29.16;35.87;97381.33;1841343;77;25654;-83
2021/06/06 11:35:48;;;;;;;4.50;4.10;;;;;;;28.70;35.82;97375.94;1840821;77;25687;-84
2021/06/06 11:38:36;;;;;;;4.03;3.72;;;;;;;28.50;35.82;97382.19;1838157;77;25738;-84
2021/06/06 11:41:27;;;;;;;4.50;4.03;;;;;;;28.59;36.77;97378.82;1781464;79;27530;-83
2021/06/06 11:44:01;;;;;;;6.90;4.10;;;;;;;28.74;35.86;97375.50;1801706;79;32101;-86
2021/06/06 11:46:39;;;;;;;5.37;3.70;;;;;;;28.81;35.61;97375.87;1755823;81;25704;-84
2021/06/06 11:49:46;;;;;;;4.10;3.30;;;;;;;28.76;35.56;97361.30;1765883;80;26463;-84
2021/06/06 11:52:39;;;;;;;4.17;3.70;;;;;;;28.87;35.64;97362.60;1779807;80;25226;-84
2021/06/06 11:55:24;;;;;;;3.90;3.45;;;;;;;28.98;35.74;97361.91;1724215;80;27979;-83